Flight Track Log - Related Links

Times and Time Zones

All times are in EDT time to prevent confusion due to time zone crossing. See the OPT429 flight status page for this flight to view local times or setup timezone preferences in your user account.

Time Position Orientation Groundspeed Altitude Reporting Facility
EDT Latitude Longitude Course Direction KTS MPH feet Rate Location/Type
Tue 01:47:20 PM 43.0500 -88.2500 206° Southwest 159 183 1,600  Level KMKE
Tue 01:48:38 PM 43.0000 -88.2833 206° Southwest 221 254 4,900 2,409 Climbing KMKE
Tue 01:49:32 PM 42.9500 -88.2500 154° Southeast 260 299 6,900 1,773 Climbing KMKE
Tue 01:50:06 PM 42.9217 -88.2075 132° Southeast 271 312 7,500 2,250 Climbing Chicago Center
Tue 01:51:08 PM 42.9178 -88.0931 93° East 299 344 10,500 2,565 Climbing Chicago Center
Tue 01:52:10 PM 42.9144 -87.9703 92° East 321 369 12,800 2,323 Climbing Chicago Center
Tue 01:53:12 PM 42.9086 -87.8392 93° East 340 391 15,300 2,448 Climbing Chicago Center
Tue 01:54:15 PM 42.9022 -87.6772 93° East 358 412 17,900 2,304 Climbing Chicago Center
Tue 01:55:17 PM 42.8953 -87.5372 94° East 368 423 20,100 2,081 Climbing Chicago Center
Tue 01:56:19 PM 42.8892 -87.3931 93° East 379 436 22,200 2,177 Climbing Chicago Center
Tue 01:57:21 PM 42.8825 -87.2367 93° East 383 441 24,600 2,032 Climbing Chicago Center
Tue 01:58:23 PM 42.8742 -87.0856 94° East 397 457 26,400 1,728 Climbing Chicago Center
Tue 01:59:26 PM 42.8681 -86.9286 93° East 411 473 28,200 1,728 Climbing Chicago Center
Tue 02:00:28 PM 42.8592 -86.7683 94° East 421 484 30,000 1,548 Climbing Chicago Center
Tue 02:01:30 PM 42.8511 -86.6075 94° East 425 489 31,400 1,452 Climbing Chicago Center
Tue 02:02:32 PM 42.8400 -86.4114 94° East 434 499 33,000 1,258 Climbing Chicago Center
Tue 02:03:34 PM 42.8303 -86.2469 95° East 438 504 34,000 968 Climbing Chicago Center
Tue 02:04:36 PM 42.8208 -86.0794 94° East 446 513 35,000 919 Climbing Chicago Center
Tue 02:05:38 PM 42.8117 -85.9114 94° East 453 521 35,900 919 Climbing Chicago Center
Tue 02:06:40 PM 42.7994 -85.7094 95° East 453 521 36,900 864 Climbing Chicago Center
Tue 02:07:43 PM 42.7894 -85.5403 95° East 453 521 37,700 720 Climbing Chicago Center
Tue 02:08:45 PM 42.7644 -85.3750 102° East 452 520 38,400 581 Climbing Chicago Center
Tue 02:09:47 PM 42.7331 -85.2089 104° East 453 521 38,900 484 Climbing Chicago Center
Tue 02:10:49 PM 42.7008 -85.0447 105° East 452 520 39,400 484 Climbing Chicago Center
Tue 02:11:51 PM 42.6631 -84.8472 105° East 452 520 39,900 444 Climbing Chicago Center
Tue 02:12:37 PM 42.6431 -84.7497 106° East 451 519 40,200 385 Climbing Cleveland Center
Tue 02:13:40 PM 42.6214 -84.5583 99° East 448 516 40,600 288 Climbing Cleveland Center
Tue 02:14:42 PM 42.6064 -84.3925 97° East 446 513 40,800 194 Climbing Cleveland Center
Tue 02:15:44 PM 42.5933 -84.2256 96° East 444 511 41,000 97 Climbing Cleveland Center
Tue 02:16:46 PM 42.5778 -84.0561 97° East 448 516 41,000  Level Cleveland Center
Tue 02:17:48 PM 42.5633 -83.8864 97° East 450 518 41,000  Level Cleveland Center
Tue 02:18:50 PM 42.5453 -83.6797 97° East 456 525 41,000  Level Cleveland Center
Tue 02:19:52 PM 42.5294 -83.5064 97° East 456 525 41,000  Level Cleveland Center
Tue 02:20:54 PM 42.5128 -83.3317 97° East 459 528 41,000  Level Cleveland Center
Tue 02:21:56 PM 42.4964 -83.1581 97° East 459 528 41,000  Level Cleveland Center
Tue 02:22:59 PM 42.4800 -82.9861 97° East 459 528 41,000  Level Cleveland Center
Tue 02:24:01 PM 42.4619 -82.8103 98° East 459 528 41,000  Level Cleveland Center
Tue 02:25:03 PM 42.4464 -82.6444 97° East 459 528 41,000  Level Cleveland Center
Tue 02:26:05 PM 42.4256 -82.4392 98° East 459 528 41,000  Level Cleveland Center
Tue 02:27:07 PM 42.4081 -82.2694 98° East 458 527 41,000  Level Cleveland Center
Tue 02:28:09 PM 42.3897 -82.0942 98° East 457 526 41,000  Level Cleveland Center
Tue 02:29:11 PM 42.3731 -81.9247 98° East 454 522 41,000  Level Cleveland Center
Tue 02:30:13 PM 42.3536 -81.7550 99° East 453 521 41,000  Level Cleveland Center
Tue 02:31:16 PM 42.3356 -81.5858 98° East 452 520 41,000  Level Cleveland Center
Tue 02:32:18 PM 42.3167 -81.4156 98° East 452 520 41,000  Level Cleveland Center
Tue 02:33:20 PM 42.2986 -81.2461 98° East 452 520 41,000  Level Cleveland Center
Tue 02:34:22 PM 42.2761 -81.0469 99° East 452 520 41,000  Level Cleveland Center
Tue 02:35:24 PM 42.2561 -80.8775 99° East 453 521 41,000  Level Cleveland Center
Tue 02:36:26 PM 42.2364 -80.7064 99° East 453 521 41,000  Level Cleveland Center
Tue 02:37:28 PM 42.2167 -80.5400 99° East 450 518 41,000  Level Cleveland Center
Tue 02:38:30 PM 42.1967 -80.3692 99° East 452 520 41,000  Level Cleveland Center
Tue 02:39:32 PM 42.1767 -80.2000 99° East 454 522 41,000  Level Cleveland Center
Tue 02:40:35 PM 42.1553 -80.0308 100° East 454 522 41,000  Level Cleveland Center
Tue 02:41:37 PM 42.1314 -79.8417 100° East 454 522 41,000  Level Cleveland Center
Tue 02:42:39 PM 42.1106 -79.6733 99° East 457 526 41,000  Level Cleveland Center
Tue 02:43:41 PM 42.0892 -79.5061 100° East 457 526 41,000  Level Cleveland Center
Tue 02:44:43 PM 42.0667 -79.3389 100° East 457 526 41,000  Level Cleveland Center
Tue 02:45:45 PM 42.0403 -79.1356 100° East 460 529 41,000  Level Cleveland Center
Tue 02:46:47 PM 42.0175 -78.9647 100° East 461 531 41,000  Level Cleveland Center
Tue 02:47:49 PM 41.9961 -78.7983 100° East 461 531 41,000 -480 Level Cleveland Center
Tue 02:48:52 PM 41.9733 -78.6292 100° East 461 531 40,000 -1,056 Descending Cleveland Center
Tue 02:49:54 PM 41.9500 -78.4614 101° East 461 531 38,800 -1,161 Descending Cleveland Center
Tue 02:50:56 PM 41.9267 -78.2903 100° East 461 531 37,600 -1,306 Descending Cleveland Center
Tue 02:51:58 PM 41.8978 -78.0872 101° East 462 532 36,100 -1,258 Descending Cleveland Center
Tue 02:53:00 PM 41.8750 -77.9219 100° East 457 526 35,000 -532 Descending Cleveland Center
Tue 02:54:02 PM 41.8414 -77.7647 106° East 443 510 35,000  Level Cleveland Center
Tue 02:55:04 PM 41.8006 -77.6094 109° East 443 510 35,000  Level Cleveland Center
Tue 02:56:06 PM 41.7556 -77.4375 109° East 443 510 35,000 -624 Level Cleveland Center
Tue 02:57:09 PM 41.7144 -77.2811 109° East 446 513 33,700 -1,440 Descending Cleveland Center
Tue 02:58:11 PM 41.6722 -77.1272 110° East 445 512 32,000 -1,597 Descending Cleveland Center
Tue 02:59:13 PM 41.6308 -76.9736 110° East 444 511 30,400 -1,645 Descending Cleveland Center
Tue 03:00:15 PM 41.5850 -76.8069 110° East 442 509 28,600 -1,645 Descending Cleveland Center
Tue 03:01:17 PM 41.5431 -76.6503 110° East 448 516 27,000 -1,548 Descending Cleveland Center
Tue 03:02:19 PM 41.5181 -76.4794 101° East 469 540 25,400 -1,603 Descending Cleveland Center
Tue 03:03:28 PM 41.4872 -76.2819 102° East 455 524 23,500 -1,523 Descending New York Center
Tue 03:04:29 PM 41.4278 -76.1250 117° Southeast 444 511 22,100 -1,400 Descending New York Center
Tue 03:05:28 PM 41.3739 -75.9794 116° Southeast 436 502 20,700 -1,350 Descending New York Center
Tue 03:06:29 PM 41.3236 -75.8403 116° Southeast 430 495 19,400 -1,289 Descending New York Center
Tue 03:07:29 PM 41.2717 -75.6900 115° Southeast 430 495 18,100 -1,815 Descending New York Center
Tue 03:08:28 PM 41.2275 -75.5489 113° Southeast 425 489 15,800 -2,231 Descending New York Center
Tue 03:09:30 PM 41.1864 -75.4275 114° Southeast 407 468 13,600 -2,168 Descending New York Center
Tue 03:10:27 PM 41.1436 -75.3006 114° Southeast 390 449 11,500 -2,136 Descending New York Center
Tue 03:11:28 PM 41.1022 -75.1767 114° Southeast 350 403 9,400 -1,805 Descending New York Center
Tue 03:12:30 PM 41.0686 -75.0753 114° Southeast 314 361 7,800 -1,537 Descending New York Center
Tue 03:13:29 PM 41.0403 -74.9911 114° Southeast 286 329 6,300 -850 Descending New York Center
Tue 03:14:30 PM 41.0044 -74.8869 114° Southeast 281 323 6,100 -252 Descending New York Center
Tue 03:15:28 PM 41.0053 -74.7992 89° East 270 311 5,800 -1,008 Descending New York Center
Tue 03:16:29 PM 41.0069 -74.6892 89° East 271 312 4,100 -1,339 Descending New York Center
Tue 03:17:29 PM 41.0100 -74.6014 87° East 271 312 3,100 -545 Descending New York Center
Tue 03:18:30 PM 41.0072 -74.4942 92° East 271 312 3,000 -50 Descending New York Center
Tue 03:19:28 PM 40.9994 -74.4083 97° East 271 312 3,000 -101 Level New York Center
Tue 03:20:29 PM 40.9903 -74.2981 96° East 271 312 2,800 -443 Descending New York Center
Tue 03:21:30 PM 40.9842 -74.2208 96° East 255 293 2,100 -403 Descending New York Center
Tue 03:22:28 PM 40.9992 -74.1336 77° East 235 270 2,000  Descending New York Center
Tue 03:23:29 PM 40.9783 -74.0639 112° Southeast 180 207 2,100 -101 Climbing New York Center
Tue 03:24:27 PM 40.9347 -74.0561 172° South 168 193 1,800 -655 Descending New York Center
Tue 03:25:28 PM 40.8889 -74.0594 183° South 158 182 800 -738 Descending New York Center
Tue 03:26:29 PM 40.8511 -74.0603 181° South 158 182 300 -492 Descending New York Center
Tue 03:28:00 PM 40.8500 -74.0500 126° Southeast  Level FlightAware Approximate
Tue 03:35:00 PM 40.8501 -74.0608 271° West  Level Estimated

Login

Don't have an account? Register now (free) for customized features, flight alerts, and more!